createdAt,value
2023-03-17T01:00:50.815Z,4.1
2023-03-17T01:30:51.644Z,6.3
2023-03-17T02:30:49.577Z,4.7
2023-03-17T03:15:40.445Z,4.3
2023-03-17T03:30:48.331Z,3.6
2023-03-17T03:46:00.031Z,2.6
2023-03-17T04:27:55.404Z,1.8
2023-03-17T04:46:12.508Z,2.5
2023-03-17T05:00:46.309Z,2.3
2023-03-17T06:25:56.481Z,3.2
2023-03-17T08:26:00.433Z,4.3
2023-03-17T08:55:54.252Z,3.4
2023-03-17T09:11:11.230Z,8.3
2023-03-17T09:25:52.990Z,3.4
2023-03-17T09:55:59.854Z,2.9
2023-03-17T10:10:59.670Z,2.2
2023-03-17T10:25:55.886Z,2.8
2023-03-17T10:41:06.885Z,2.3
2023-03-17T10:55:58.266Z,2.4
2023-03-17T11:10:56.937Z,0.9
2023-03-17T11:25:57.571Z,1.6
2023-03-17T11:40:58.060Z,1.8
2023-03-17T11:55:58.628Z,1.8
2023-03-17T12:10:59.323Z,1.8
2023-03-17T12:25:59.970Z,2.8
2023-03-17T12:41:07.697Z,1.2
2023-03-17T12:56:00.880Z,3.8
2023-03-17T13:11:01.419Z,2.3
2023-03-17T13:26:02.089Z,2.7
2023-03-17T13:41:04.497Z,1.3
2023-03-17T13:56:04.748Z,2.2
2023-03-17T14:11:05.390Z,1.3
2023-03-17T14:26:04.424Z,2.6
2023-03-17T14:41:08.260Z,1.4
2023-03-17T14:56:06.794Z,2.6
2023-03-17T15:11:31.014Z,3.1
2023-03-17T15:26:06.672Z,2.6
2023-03-17T15:41:08.753Z,3.6
2023-03-17T15:56:15.889Z,7.3
2023-03-17T16:11:19.256Z,4.6
2023-03-17T16:26:16.862Z,2.4
2023-03-17T16:41:09.319Z,2.5
2023-03-17T16:56:12.418Z,8.3
2023-03-17T17:11:15.141Z,11.3
2023-03-17T17:26:25.589Z,14.3
2023-03-17T17:41:13.200Z,12.2
2023-03-17T17:56:22.385Z,11.8
2023-03-17T18:11:12.036Z,11.2
2023-03-17T18:26:13.565Z,9.1
2023-03-17T18:41:15.965Z,12.1
2023-03-17T18:56:14.165Z,12.8
2023-03-17T19:11:19.376Z,21
2023-03-17T19:56:54.184Z,19.1
2023-03-17T20:11:21.327Z,12.4
2023-03-17T20:26:17.288Z,15.3
2023-03-17T20:41:31.540Z,10.5
2023-03-17T21:11:49.092Z,11.2
2023-03-17T21:26:22.951Z,8.6
2023-03-17T21:41:26.297Z,9.7
2023-03-17T21:56:25.241Z,7.8
2023-03-17T22:11:20.543Z,6.2
2023-03-17T22:26:33.849Z,6.9
2023-03-17T22:41:25.556Z,8.2
2023-03-17T22:56:22.089Z,5.8
2023-03-17T23:01:00.290Z,6.9
2023-03-17T23:15:39.048Z,4.1
2023-03-17T23:30:39.709Z,4.7
2023-03-17T23:45:36.750Z,6.1
